createdAt,value
2023-02-23T00:00:21.095Z,5.04
2023-02-23T00:02:44.950Z,5.13
2023-02-23T00:05:09.731Z,5.10
2023-02-23T00:07:33.730Z,4.95
2023-02-23T00:09:57.262Z,5.08
2023-02-23T00:12:21.101Z,4.89
2023-02-23T00:14:46.172Z,5.03
2023-02-23T00:17:14.417Z,5.18
2023-02-23T00:19:38.322Z,5.22
2023-02-23T00:22:01.965Z,5.00
2023-02-23T00:24:27.101Z,5.03
2023-02-23T00:26:51.604Z,4.82
2023-02-23T00:29:17.947Z,4.88
2023-02-23T00:31:44.396Z,4.99
2023-02-23T00:34:08.308Z,4.97
2023-02-23T00:36:35.000Z,4.97
2023-02-23T00:39:01.684Z,4.75
2023-02-23T00:41:28.712Z,4.86
2023-02-23T00:43:55.020Z,4.91
2023-02-23T00:46:21.651Z,4.90
2023-02-23T00:48:47.660Z,4.82
2023-02-23T00:51:12.055Z,4.76
2023-02-23T00:53:36.839Z,4.93
2023-02-23T00:56:00.608Z,4.70
2023-02-23T00:58:24.670Z,4.90
2023-02-23T01:00:48.301Z,4.81
2023-02-23T01:03:12.053Z,4.93
2023-02-23T01:05:37.554Z,4.71
2023-02-23T01:08:01.066Z,4.62
2023-02-23T01:10:24.704Z,4.60
2023-02-23T01:12:50.701Z,4.94
2023-02-23T01:15:14.314Z,4.84
2023-02-23T01:17:37.859Z,4.52
2023-02-23T01:20:01.435Z,4.79
2023-02-23T01:22:26.400Z,4.81
2023-02-23T01:24:50.000Z,4.57
2023-02-23T01:27:13.691Z,4.57
2023-02-23T01:29:37.283Z,4.64
2023-02-23T01:32:03.266Z,4.58
2023-02-23T01:34:28.319Z,4.49
2023-02-23T01:36:52.328Z,4.47
2023-02-23T01:39:20.881Z,4.61
2023-02-23T01:41:45.937Z,4.68
2023-02-23T01:45:03.461Z,4.87
2023-02-23T01:47:27.838Z,4.74
2023-02-23T01:49:51.459Z,4.75
2023-02-23T01:52:18.152Z,4.62
2023-02-23T01:54:50.534Z,4.54
2023-02-23T01:57:15.902Z,4.36
2023-02-23T01:59:43.373Z,4.59
2023-02-23T02:02:07.730Z,4.72
2023-02-23T02:04:38.285Z,4.60
2023-02-23T02:07:03.843Z,4.43
2023-02-23T02:09:28.439Z,4.54
2023-02-23T02:11:54.260Z,4.34
2023-02-23T02:14:23.858Z,4.60
2023-02-23T02:17:03.582Z,4.34
2023-02-23T02:20:00.782Z,4.50
2023-02-23T02:23:11.266Z,4.49
2023-02-23T02:25:55.407Z,4.47
2023-02-23T02:28:45.953Z,4.06
2023-02-23T02:31:39.216Z,4.39
2023-02-23T02:34:33.663Z,4.22
2023-02-23T02:37:28.341Z,4.23
2023-02-23T02:40:16.004Z,4.23
2023-02-23T02:42:57.062Z,4.38
2023-02-23T02:45:29.715Z,4.43
2023-02-23T02:48:00.532Z,4.36
2023-02-23T02:50:31.485Z,4.37
2023-02-23T02:53:02.715Z,4.44
2023-02-23T02:55:34.219Z,4.36
2023-02-23T02:58:02.234Z,4.41
2023-02-23T03:00:50.163Z,4.40
2023-02-23T03:03:48.933Z,4.20
2023-02-23T03:06:29.864Z,4.18
2023-02-23T03:09:20.636Z,4.04
2023-02-23T03:12:17.524Z,4.25
2023-02-23T03:15:11.113Z,3.96
2023-02-23T03:18:02.413Z,3.92
2023-02-23T03:20:49.307Z,4.09
2023-02-23T03:23:38.880Z,4.09
2023-02-23T03:26:26.601Z,4.24
2023-02-23T03:29:21.795Z,4.36
2023-02-23T03:32:09.893Z,4.24
2023-02-23T03:34:56.354Z,4.39
2023-02-23T03:37:46.367Z,4.22
2023-02-23T03:40:34.762Z,4.06
2023-02-23T03:43:20.624Z,4.13
2023-02-23T03:46:04.581Z,4.22
2023-02-23T03:48:47.020Z,4.02
2023-02-23T03:51:30.548Z,3.90
2023-02-23T03:54:19.240Z,4.12
2023-02-23T03:57:06.499Z,3.99
2023-02-23T03:59:52.702Z,3.84
2023-02-23T04:02:37.208Z,3.96
2023-02-23T04:05:20.992Z,3.99
2023-02-23T04:08:04.895Z,3.91
2023-02-23T04:10:49.411Z,3.94
2023-02-23T04:13:17.898Z,3.87
2023-02-23T04:15:49.962Z,3.74
2023-02-23T04:18:16.881Z,3.65
2023-02-23T04:20:40.466Z,3.84
2023-02-23T04:23:04.146Z,3.90
2023-02-23T04:25:28.468Z,4.00
2023-02-23T04:27:52.134Z,3.95
2023-02-23T04:30:15.833Z,4.02
2023-02-23T04:32:40.912Z,3.85
2023-02-23T04:35:04.851Z,3.88
2023-02-23T04:37:28.463Z,4.00
2023-02-23T04:39:51.998Z,3.74
2023-02-23T04:42:15.902Z,3.74
2023-02-23T04:44:39.444Z,3.79
2023-02-23T04:47:03.012Z,3.93
2023-02-23T04:49:27.923Z,3.58
2023-02-23T04:51:51.567Z,3.63
2023-02-23T04:54:15.092Z,3.68
2023-02-23T04:56:39.529Z,3.72
2023-02-23T04:59:03.393Z,3.58
2023-02-23T05:01:27.253Z,3.64
2023-02-23T05:03:51.440Z,3.82
2023-02-23T05:06:16.782Z,3.70
2023-02-23T05:08:40.325Z,3.58
2023-02-23T05:11:03.984Z,3.44
2023-02-23T05:13:27.487Z,3.48
2023-02-23T05:15:51.766Z,3.57
2023-02-23T05:18:15.324Z,3.56
2023-02-23T05:20:38.945Z,3.31
2023-02-23T05:23:03.925Z,3.35
2023-02-23T05:25:27.560Z,3.48
2023-02-23T05:27:51.102Z,3.42
2023-02-23T05:30:15.553Z,3.42
2023-02-23T05:32:39.092Z,3.32
2023-02-23T05:35:03.000Z,3.60
2023-02-23T05:37:26.552Z,3.53
2023-02-23T05:39:51.611Z,3.53
2023-02-23T05:42:15.145Z,3.51
2023-02-23T05:44:38.883Z,3.50
2023-02-23T05:47:02.380Z,3.40
2023-02-23T05:49:26.002Z,3.15
2023-02-23T05:51:49.907Z,3.10
2023-02-23T05:54:14.078Z,3.29
2023-02-23T05:56:39.394Z,3.17
2023-02-23T05:59:04.562Z,3.23
2023-02-23T06:01:29.080Z,3.41
2023-02-23T06:03:53.062Z,3.36
2023-02-23T06:06:17.271Z,3.45
2023-02-23T06:08:40.952Z,3.35
2023-02-23T06:11:04.928Z,3.16
2023-02-23T06:13:30.361Z,3.14
2023-02-23T06:15:53.896Z,2.91
2023-02-23T06:18:18.254Z,3.05
2023-02-23T06:20:41.821Z,3.06
2023-02-23T06:23:06.463Z,3.10
2023-02-23T06:25:30.015Z,3.13
2023-02-23T06:27:53.725Z,3.12
2023-02-23T06:30:19.533Z,3.12
2023-02-23T06:32:43.496Z,3.20
2023-02-23T06:35:11.363Z,3.25
2023-02-23T06:37:39.097Z,3.17
2023-02-23T06:40:03.088Z,3.16
2023-02-23T06:42:27.329Z,3.12
2023-02-23T06:44:51.162Z,2.94
2023-02-23T06:47:16.329Z,3.06
2023-02-23T06:49:40.938Z,2.98
2023-02-23T06:52:05.079Z,3.21
2023-02-23T06:54:28.912Z,3.24
2023-02-23T06:56:53.433Z,3.30
2023-02-23T06:59:17.452Z,3.38
2023-02-23T07:01:42.514Z,3.40
2023-02-23T07:04:07.657Z,3.44
2023-02-23T07:06:31.461Z,3.41
2023-02-23T07:08:55.101Z,3.42
2023-02-23T07:11:20.353Z,3.40
2023-02-23T07:13:43.995Z,3.38
2023-02-23T07:16:09.201Z,3.56
2023-02-23T07:18:33.055Z,3.62
2023-02-23T07:20:58.072Z,3.64
2023-02-23T07:23:22.321Z,3.61
2023-02-23T07:25:46.302Z,3.69
2023-02-23T07:28:09.907Z,3.89
2023-02-23T07:30:33.750Z,3.88
2023-02-23T07:32:57.257Z,3.87
2023-02-23T07:35:21.707Z,3.81
2023-02-23T07:37:46.643Z,4.02
2023-02-23T07:40:12.770Z,3.96
2023-02-23T07:42:36.540Z,4.12
2023-02-23T07:45:01.040Z,3.95
2023-02-23T07:47:30.962Z,4.12
2023-02-23T07:49:54.527Z,4.25
2023-02-23T07:52:19.665Z,4.15
2023-02-23T07:54:44.633Z,4.48
2023-02-23T07:57:08.133Z,4.19
2023-02-23T07:59:32.131Z,4.59
2023-02-23T08:01:55.656Z,4.46
2023-02-23T08:04:19.519Z,4.74
2023-02-23T08:06:43.128Z,4.48
2023-02-23T08:09:08.006Z,4.91
2023-02-23T08:11:32.899Z,4.65
2023-02-23T08:13:59.993Z,4.86
2023-02-23T08:16:23.541Z,5.00
2023-02-23T08:18:47.270Z,5.01
2023-02-23T08:21:10.978Z,5.29
2023-02-23T08:23:35.606Z,5.38
2023-02-23T08:25:59.731Z,5.36
2023-02-23T08:28:25.230Z,5.34
2023-02-23T08:30:48.938Z,5.57
2023-02-23T08:33:12.523Z,5.54
2023-02-23T08:35:35.998Z,5.84
2023-02-23T08:38:00.661Z,5.95
2023-02-23T08:40:24.223Z,5.97
2023-02-23T08:42:49.153Z,5.59
2023-02-23T08:45:14.649Z,5.45
2023-02-23T08:47:38.430Z,5.70
2023-02-23T08:50:02.195Z,6.15
2023-02-23T08:52:25.868Z,6.32
2023-02-23T08:54:49.614Z,6.46
2023-02-23T08:57:13.336Z,6.69
2023-02-23T08:59:37.594Z,6.67
2023-02-23T09:02:02.621Z,6.82
2023-02-23T09:04:26.141Z,6.76
2023-02-23T09:06:50.306Z,6.62
2023-02-23T09:09:13.903Z,6.36
2023-02-23T09:11:37.563Z,6.44
2023-02-23T09:14:01.168Z,6.56
2023-02-23T09:16:24.845Z,6.25
2023-02-23T09:18:49.892Z,6.23
2023-02-23T09:21:21.285Z,6.55
2023-02-23T09:23:45.665Z,7.03
2023-02-23T09:26:11.955Z,6.68
2023-02-23T09:28:38.170Z,7.10
2023-02-23T09:31:08.071Z,7.15
2023-02-23T09:33:32.160Z,7.48
2023-02-23T09:35:57.127Z,7.27
2023-02-23T09:38:21.388Z,7.44
2023-02-23T09:40:49.755Z,7.31
2023-02-23T09:43:17.529Z,7.44
2023-02-23T09:45:44.462Z,7.84
2023-02-23T09:48:16.559Z,8.20
2023-02-23T09:50:44.125Z,8.46
2023-02-23T09:53:30.556Z,8.70
2023-02-23T09:55:57.474Z,8.08
2023-02-23T09:58:24.702Z,8.13
2023-02-23T10:01:03.546Z,8.13
2023-02-23T10:03:32.135Z,8.45
2023-02-23T10:06:02.288Z,8.78
2023-02-23T10:08:52.935Z,8.26
2023-02-23T10:11:27.560Z,8.96
2023-02-23T10:14:06.566Z,9.13
2023-02-23T10:16:47.367Z,8.91
2023-02-23T10:19:22.855Z,9.52
2023-02-23T10:21:55.359Z,9.54
2023-02-23T10:24:26.668Z,9.36
2023-02-23T10:26:55.547Z,9.73
2023-02-23T10:29:24.896Z,9.97
2023-02-23T10:31:53.338Z,10.18
2023-02-23T10:34:18.844Z,10.46
2023-02-23T10:36:48.994Z,9.50
2023-02-23T10:39:15.352Z,9.60
2023-02-23T10:41:41.355Z,10.33
2023-02-23T10:44:16.424Z,9.42
2023-02-23T10:46:42.528Z,10.80
2023-02-23T10:49:08.340Z,11.23
2023-02-23T10:51:38.921Z,11.03
2023-02-23T10:54:43.193Z,11.32
2023-02-23T10:57:09.868Z,11.69
2023-02-23T10:59:34.667Z,11.36
2023-02-23T11:02:02.335Z,11.60
2023-02-23T11:04:30.355Z,12.13
2023-02-23T11:07:09.954Z,12.12
2023-02-23T11:09:46.512Z,11.77
2023-02-23T11:12:22.865Z,11.52
2023-02-23T11:14:46.623Z,12.46
2023-02-23T11:17:31.818Z,12.71
2023-02-23T11:20:02.800Z,12.71
2023-02-23T11:22:27.193Z,12.84
2023-02-23T11:24:52.316Z,12.89
2023-02-23T11:27:24.905Z,12.94
2023-02-23T11:29:52.496Z,12.38
2023-02-23T11:32:21.318Z,12.09
2023-02-23T11:34:45.719Z,12.67
2023-02-23T11:37:22.054Z,12.99
2023-02-23T11:39:54.055Z,12.72
2023-02-23T11:42:22.161Z,12.92
2023-02-23T11:44:52.549Z,12.70
2023-02-23T11:47:20.600Z,12.26
2023-02-23T11:49:48.176Z,12.07
2023-02-23T11:52:17.227Z,12.38
2023-02-23T11:54:44.666Z,12.90
2023-02-23T11:57:08.473Z,12.35
2023-02-23T11:59:38.556Z,12.78
2023-02-23T12:02:20.798Z,12.92
2023-02-23T12:04:47.648Z,12.66
2023-02-23T12:07:41.733Z,12.44
2023-02-23T12:10:15.247Z,12.66
2023-02-23T12:12:50.238Z,12.99
2023-02-23T12:15:26.632Z,13.10
2023-02-23T12:17:56.403Z,13.21
2023-02-23T12:20:26.348Z,12.90
2023-02-23T12:22:55.621Z,12.76
2023-02-23T12:25:27.031Z,12.48
2023-02-23T12:28:05.061Z,12.87
2023-02-23T12:30:44.568Z,12.99
2023-02-23T12:33:15.116Z,12.98
2023-02-23T12:35:50.387Z,13.34
2023-02-23T12:38:27.871Z,12.92
2023-02-23T12:40:56.167Z,13.08
2023-02-23T12:43:30.632Z,13.13
2023-02-23T12:46:05.631Z,13.27
2023-02-23T12:48:37.271Z,13.16
2023-02-23T12:51:05.414Z,13.35
2023-02-23T12:53:36.167Z,12.55
2023-02-23T12:56:15.964Z,13.20
2023-02-23T12:58:46.388Z,12.86
2023-02-23T13:01:18.691Z,12.81
2023-02-23T13:04:54.493Z,12.85
2023-02-23T13:07:24.109Z,13.08
2023-02-23T13:10:02.797Z,12.90
2023-02-23T13:12:42.438Z,13.09
2023-02-23T13:15:31.221Z,12.94
2023-02-23T13:18:03.804Z,12.90
2023-02-23T13:20:34.858Z,13.17
2023-02-23T13:23:10.904Z,12.89
2023-02-23T13:25:44.344Z,12.90
2023-02-23T13:28:17.533Z,13.14
2023-02-23T13:30:47.030Z,12.99
2023-02-23T13:33:27.521Z,13.07
2023-02-23T13:35:56.488Z,12.76
2023-02-23T13:38:27.286Z,12.95
2023-02-23T13:40:56.257Z,12.69
2023-02-23T13:43:29.794Z,12.92
2023-02-23T13:46:07.017Z,12.37
2023-02-23T13:48:56.117Z,12.23
2023-02-23T13:51:33.762Z,12.50
2023-02-23T13:54:03.587Z,12.46
2023-02-23T13:56:29.787Z,12.44
2023-02-23T13:58:57.708Z,11.65
2023-02-23T14:01:28.075Z,12.10
2023-02-23T14:03:59.424Z,12.36
2023-02-23T14:06:26.805Z,12.16
2023-02-23T14:08:57.014Z,12.17
2023-02-23T14:11:44.212Z,11.62
2023-02-23T14:14:07.886Z,11.73
2023-02-23T14:16:33.021Z,11.29
2023-02-23T14:19:13.181Z,12.08
2023-02-23T14:21:45.149Z,11.99
2023-02-23T14:24:19.877Z,11.70
2023-02-23T14:26:47.737Z,11.77
2023-02-23T14:29:31.989Z,11.56
2023-02-23T14:32:03.606Z,11.35
2023-02-23T14:37:26.605Z,11.66
2023-02-23T14:39:52.329Z,11.74
2023-02-23T14:42:25.057Z,11.87
2023-02-23T14:44:51.528Z,11.89
2023-02-23T14:47:18.985Z,11.77
2023-02-23T14:49:48.006Z,11.48
2023-02-23T14:52:20.945Z,11.71
2023-02-23T14:54:44.498Z,11.36
2023-02-23T14:57:18.864Z,11.51
2023-02-23T14:59:43.694Z,11.46
2023-02-23T15:02:11.394Z,11.44
2023-02-23T15:04:38.597Z,11.40
2023-02-23T15:07:03.621Z,11.62
2023-02-23T15:09:36.671Z,11.45
2023-02-23T15:12:08.265Z,11.18
2023-02-23T15:14:36.660Z,11.12
2023-02-23T15:17:00.278Z,10.86
2023-02-23T15:19:34.266Z,11.15
2023-02-23T15:22:00.386Z,11.06
2023-02-23T15:24:28.618Z,11.09
2023-02-23T15:26:54.270Z,11.17
2023-02-23T15:29:22.357Z,11.04
2023-02-23T15:31:52.535Z,11.09
2023-02-23T15:34:19.952Z,11.18
2023-02-23T15:36:47.149Z,10.86
2023-02-23T15:39:16.765Z,10.93
2023-02-23T15:41:42.699Z,10.80
2023-02-23T15:44:14.464Z,10.84
2023-02-23T15:46:38.504Z,10.97
2023-02-23T15:49:05.419Z,10.82
2023-02-23T15:51:37.686Z,10.90
2023-02-23T15:54:02.904Z,10.85
2023-02-23T15:56:29.293Z,10.67
2023-02-23T15:58:57.253Z,10.80
2023-02-23T16:01:25.961Z,10.60
2023-02-23T16:04:02.210Z,10.52
2023-02-23T16:06:32.644Z,10.44
2023-02-23T16:09:09.316Z,10.45
2023-02-23T16:11:36.569Z,10.29
2023-02-23T16:14:00.152Z,10.52
2023-02-23T16:16:26.070Z,10.45
2023-02-23T16:19:01.230Z,10.37
2023-02-23T16:21:26.434Z,10.36
2023-02-23T16:23:52.670Z,10.30
2023-02-23T16:26:24.229Z,10.11
2023-02-23T16:28:48.530Z,10.23
2023-02-23T16:31:14.823Z,10.31
2023-02-23T16:33:48.634Z,10.17
2023-02-23T16:36:20.936Z,9.94
2023-02-23T16:38:58.919Z,9.82
2023-02-23T16:41:23.878Z,10.00
2023-02-23T16:43:50.552Z,10.17
2023-02-23T16:46:14.287Z,9.85
2023-02-23T16:48:37.795Z,9.92
2023-02-23T16:51:03.116Z,9.86
2023-02-23T16:53:26.639Z,9.95
2023-02-23T16:55:54.351Z,9.74
2023-02-23T16:58:21.327Z,9.88
2023-02-23T17:00:45.578Z,9.60
2023-02-23T17:03:20.337Z,9.64
2023-02-23T17:05:43.992Z,9.71
2023-02-23T17:08:10.591Z,9.77
2023-02-23T17:10:36.014Z,9.76
2023-02-23T17:13:04.990Z,9.63
2023-02-23T17:15:32.783Z,9.68
2023-02-23T17:17:56.533Z,9.61
2023-02-23T17:20:21.457Z,9.54
2023-02-23T17:22:45.264Z,9.62
2023-02-23T17:25:10.748Z,9.52
2023-02-23T17:27:34.287Z,9.62
2023-02-23T17:29:57.930Z,9.67
2023-02-23T17:32:24.233Z,9.48
2023-02-23T17:34:50.174Z,9.46
2023-02-23T17:37:13.751Z,9.44
2023-02-23T17:39:40.540Z,9.43
2023-02-23T17:42:06.633Z,9.56
2023-02-23T17:44:32.015Z,9.49
2023-02-23T17:46:55.602Z,9.51
2023-02-23T17:49:19.248Z,9.50
2023-02-23T17:51:42.776Z,9.35
2023-02-23T17:54:06.399Z,9.37
2023-02-23T17:56:31.607Z,9.25
2023-02-23T17:58:56.627Z,9.34
2023-02-23T18:01:20.559Z,9.26
2023-02-23T18:03:44.750Z,9.11
2023-02-23T18:06:11.466Z,9.33
2023-02-23T18:08:35.590Z,9.30
2023-02-23T18:11:00.349Z,9.06
2023-02-23T18:13:24.630Z,9.25
2023-02-23T18:15:54.266Z,9.15
2023-02-23T18:18:18.138Z,9.20
2023-02-23T18:20:41.756Z,9.12
2023-02-23T18:23:05.441Z,8.96
2023-02-23T18:25:30.962Z,9.11
2023-02-23T18:27:55.848Z,8.95
2023-02-23T18:30:19.944Z,8.90
2023-02-23T18:32:45.023Z,9.02
2023-02-23T18:35:09.333Z,8.98
2023-02-23T18:37:32.941Z,8.94
2023-02-23T18:39:57.851Z,8.97
2023-02-23T18:42:21.611Z,8.84
2023-02-23T18:44:45.349Z,8.82
2023-02-23T18:47:08.994Z,8.94
2023-02-23T18:49:33.972Z,8.90
2023-02-23T18:51:58.166Z,8.94
2023-02-23T18:54:22.427Z,8.95
2023-02-23T18:56:48.289Z,9.03
2023-02-23T18:59:12.283Z,8.86
2023-02-23T19:01:37.585Z,8.90
2023-02-23T19:04:03.611Z,8.94
2023-02-23T19:06:29.724Z,9.06
2023-02-23T19:08:55.787Z,8.97
2023-02-23T19:11:19.649Z,8.89
2023-02-23T19:13:43.369Z,8.75
2023-02-23T19:16:09.055Z,8.77
2023-02-23T19:18:32.956Z,8.95
2023-02-23T19:20:56.842Z,8.90
2023-02-23T19:23:21.900Z,8.71
2023-02-23T19:25:49.042Z,8.75
2023-02-23T19:28:13.007Z,8.89
2023-02-23T19:30:36.680Z,8.86
2023-02-23T19:33:01.287Z,8.92
2023-02-23T19:35:25.330Z,8.77
2023-02-23T19:37:51.314Z,8.46
2023-02-23T19:40:19.744Z,8.53
2023-02-23T19:42:46.010Z,8.75
2023-02-23T19:45:10.211Z,7.98
2023-02-23T19:47:33.783Z,8.10
2023-02-23T19:49:57.341Z,8.27
2023-02-23T19:52:20.873Z,7.86
2023-02-23T19:54:44.729Z,8.16
2023-02-23T19:57:09.998Z,8.02
2023-02-23T19:59:33.831Z,7.96
2023-02-23T20:01:57.534Z,7.99
2023-02-23T20:04:21.286Z,7.89
2023-02-23T20:06:47.179Z,7.97
2023-02-23T20:09:11.487Z,8.06
2023-02-23T20:11:35.068Z,7.78
2023-02-23T20:14:00.550Z,7.64
2023-02-23T20:16:29.298Z,7.71
2023-02-23T20:18:52.978Z,7.89
2023-02-23T20:21:20.418Z,7.63
2023-02-23T20:23:46.934Z,7.69
2023-02-23T20:26:14.199Z,7.77
2023-02-23T20:28:37.792Z,7.64
2023-02-23T20:31:03.449Z,7.58
2023-02-23T20:33:27.317Z,7.57
2023-02-23T20:35:50.833Z,7.60
2023-02-23T20:38:15.265Z,7.58
2023-02-23T20:40:38.896Z,7.78
2023-02-23T20:43:02.476Z,7.80
2023-02-23T20:45:27.222Z,7.70
2023-02-23T20:47:53.540Z,7.63
2023-02-23T20:50:17.301Z,7.81
2023-02-23T20:52:42.044Z,7.73
2023-02-23T20:55:06.896Z,7.52
2023-02-23T20:57:30.588Z,7.61
2023-02-23T20:59:54.201Z,7.80
2023-02-23T21:02:17.761Z,7.75
2023-02-23T21:04:44.285Z,7.72
2023-02-23T21:07:08.169Z,7.64
2023-02-23T21:09:32.875Z,7.79
2023-02-23T21:11:56.435Z,7.75
2023-02-23T21:14:20.676Z,7.68
2023-02-23T21:16:46.746Z,7.60
2023-02-23T21:19:13.924Z,7.70
2023-02-23T21:21:42.118Z,7.88
2023-02-23T21:24:06.076Z,7.79
2023-02-23T21:26:30.564Z,7.87
2023-02-23T21:28:54.290Z,7.59
2023-02-23T21:31:17.971Z,7.70
2023-02-23T21:33:43.446Z,7.66
2023-02-23T21:36:10.563Z,7.67
2023-02-23T21:38:35.505Z,7.59
2023-02-23T21:40:59.128Z,7.61
2023-02-23T21:43:23.142Z,7.62
2023-02-23T21:45:46.815Z,7.56
2023-02-23T21:48:10.792Z,7.47
2023-02-23T21:50:34.359Z,7.69
2023-02-23T21:52:58.305Z,7.77
2023-02-23T21:55:23.546Z,7.47
2023-02-23T21:57:47.205Z,7.27
2023-02-23T22:00:13.216Z,7.54
2023-02-23T22:02:41.039Z,7.57
2023-02-23T22:05:05.299Z,7.65
2023-02-23T22:07:29.289Z,7.68
2023-02-23T22:09:52.893Z,7.61
2023-02-23T22:12:17.816Z,7.42
2023-02-23T22:14:41.372Z,7.38
2023-02-23T22:17:06.354Z,7.47
2023-02-23T22:19:30.167Z,7.52
2023-02-23T22:21:55.148Z,7.60
2023-02-23T22:24:19.641Z,7.57
2023-02-23T22:26:50.563Z,7.58
2023-02-23T22:29:15.641Z,7.48
2023-02-23T22:31:40.010Z,7.42
2023-02-23T22:34:06.239Z,7.29
2023-02-23T22:36:30.033Z,7.50
2023-02-23T22:38:53.644Z,7.55
2023-02-23T22:41:17.179Z,7.32
2023-02-23T22:43:41.621Z,7.54
2023-02-23T22:46:07.706Z,7.58
2023-02-23T22:48:31.371Z,7.43
2023-02-23T22:50:55.406Z,7.44
2023-02-23T22:53:19.490Z,7.30
2023-02-23T22:55:48.133Z,7.32
2023-02-23T22:58:12.284Z,7.36
2023-02-23T23:00:36.247Z,7.30
2023-02-23T23:03:05.241Z,7.26
2023-02-23T23:05:28.818Z,7.17
2023-02-23T23:07:52.573Z,7.49
2023-02-23T23:10:17.822Z,7.30
2023-02-23T23:12:41.430Z,7.37
2023-02-23T23:15:07.465Z,7.42
2023-02-23T23:17:32.028Z,7.18
2023-02-23T23:19:57.497Z,7.33
2023-02-23T23:22:21.049Z,7.31
2023-02-23T23:24:48.993Z,7.44
2023-02-23T23:27:14.589Z,7.21
2023-02-23T23:29:38.431Z,7.14
2023-02-23T23:32:04.689Z,7.23
2023-02-23T23:34:28.343Z,7.23
2023-02-23T23:36:55.430Z,7.28
2023-02-23T23:39:21.907Z,7.30
2023-02-23T23:41:48.112Z,7.29
2023-02-23T23:44:13.269Z,7.52
2023-02-23T23:46:42.642Z,7.19
2023-02-23T23:49:11.063Z,7.04
2023-02-23T23:51:38.980Z,6.97
2023-02-23T23:54:04.607Z,7.04
2023-02-23T23:56:30.546Z,7.08
2023-02-23T23:58:55.926Z,7.17
